sensor_id;sensor_type;location;lat;lon;timestamp;temperature;humidity
66728;DHT22;53641;44.274;19.890;2023-10-19T00:00:47;12.50;97.10
66728;DHT22;53641;44.274;19.890;2023-10-19T00:03:16;10.80;96.60
66728;DHT22;53641;44.274;19.890;2023-10-19T00:05:42;11.90;96.90
66728;DHT22;53641;44.274;19.890;2023-10-19T00:08:08;11.80;96.80
66728;DHT22;53641;44.274;19.890;2023-10-19T00:10:42;12.10;97.00
66728;DHT22;53641;44.274;19.890;2023-10-19T00:13:13;12.50;97.10
66728;DHT22;53641;44.274;19.890;2023-10-19T00:15:39;11.90;97.00
66728;DHT22;53641;44.274;19.890;2023-10-19T00:18:17;12.20;97.20
66728;DHT22;53641;44.274;19.890;2023-10-19T00:20:48;12.00;97.20
66728;DHT22;53641;44.274;19.890;2023-10-19T00:23:21;12.30;97.50
66728;DHT22;53641;44.274;19.890;2023-10-19T00:25:57;11.80;97.40
66728;DHT22;53641;44.274;19.890;2023-10-19T00:28:23;12.10;97.70
66728;DHT22;53641;44.274;19.890;2023-10-19T00:30:52;11.30;97.60
66728;DHT22;53641;44.274;19.890;2023-10-19T00:33:21;11.80;97.50
66728;DHT22;53641;44.274;19.890;2023-10-19T00:35:47;12.30;97.60
66728;DHT22;53641;44.274;19.890;2023-10-19T00:38:24;15.30;98.30
66728;DHT22;53641;44.274;19.890;2023-10-19T00:40:53;12.10;97.60
66728;DHT22;53641;44.274;19.890;2023-10-19T00:43:26;14.00;98.00
66728;DHT22;53641;44.274;19.890;2023-10-19T00:45:52;11.90;97.50
66728;DHT22;53641;44.274;19.890;2023-10-19T00:48:18;12.10;97.50
66728;DHT22;53641;44.274;19.890;2023-10-19T00:50:48;12.00;97.90
66728;DHT22;53641;44.274;19.890;2023-10-19T00:53:18;13.10;98.10
66728;DHT22;53641;44.274;19.890;2023-10-19T00:55:44;11.50;97.70
66728;DHT22;53641;44.274;19.890;2023-10-19T00:58:11;12.30;97.70
66728;DHT22;53641;44.274;19.890;2023-10-19T01:00:43;12.10;97.50
66728;DHT22;53641;44.274;19.890;2023-10-19T01:03:10;12.00;97.50
66728;DHT22;53641;44.274;19.890;2023-10-19T01:05:36;13.00;97.90
66728;DHT22;53641;44.274;19.890;2023-10-19T01:08:02;11.00;97.70
66728;DHT22;53641;44.274;19.890;2023-10-19T01:10:39;12.10;97.90
66728;DHT22;53641;44.274;19.890;2023-10-19T01:13:05;12.40;97.90
66728;DHT22;53641;44.274;19.890;2023-10-19T01:15:31;12.20;97.90
66728;DHT22;53641;44.274;19.890;2023-10-19T01:18:02;11.90;97.80
66728;DHT22;53641;44.274;19.890;2023-10-19T01:20:28;12.10;97.90
66728;DHT22;53641;44.274;19.890;2023-10-19T01:23:14;11.40;97.90
66728;DHT22;53641;44.274;19.890;2023-10-19T01:25:50;11.90;98.40
66728;DHT22;53641;44.274;19.890;2023-10-19T01:28:26;12.30;98.80
66728;DHT22;53641;44.274;19.890;2023-10-19T01:31:13;10.90;98.60
66728;DHT22;53641;44.274;19.890;2023-10-19T01:33:45;11.90;98.70
66728;DHT22;53641;44.274;19.890;2023-10-19T01:36:11;12.20;98.70
66728;DHT22;53641;44.274;19.890;2023-10-19T01:38:41;12.00;98.60
66728;DHT22;53641;44.274;19.890;2023-10-19T01:41:07;10.10;98.40
66728;DHT22;53641;44.274;19.890;2023-10-19T01:43:39;11.80;99.00
66728;DHT22;53641;44.274;19.890;2023-10-19T01:46:05;11.80;98.90
66728;DHT22;53641;44.274;19.890;2023-10-19T01:48:40;10.90;98.60
66728;DHT22;53641;44.274;19.890;2023-10-19T01:51:06;12.10;99.00
66728;DHT22;53641;44.274;19.890;2023-10-19T01:53:39;12.00;98.70
66728;DHT22;53641;44.274;19.890;2023-10-19T01:56:08;12.10;98.70
66728;DHT22;53641;44.274;19.890;2023-10-19T01:58:35;12.20;98.60
66728;DHT22;53641;44.274;19.890;2023-10-19T02:01:02;11.20;98.40
66728;DHT22;53641;44.274;19.890;2023-10-19T02:03:32;12.50;99.00
66728;DHT22;53641;44.274;19.890;2023-10-19T02:05:58;12.80;99.90
66728;DHT22;53641;44.274;19.890;2023-10-19T02:08:25;11.60;99.40
66728;DHT22;53641;44.274;19.890;2023-10-19T02:10:52;11.10;99.30
66728;DHT22;53641;44.274;19.890;2023-10-19T02:13:17;10.50;99.30
66728;DHT22;53641;44.274;19.890;2023-10-19T02:15:44;11.80;99.60
66728;DHT22;53641;44.274;19.890;2023-10-19T02:18:10;12.50;99.80
66728;DHT22;53641;44.274;19.890;2023-10-19T02:20:36;12.30;99.60
66728;DHT22;53641;44.274;19.890;2023-10-19T02:23:07;12.20;99.50
66728;DHT22;53641;44.274;19.890;2023-10-19T02:25:33;10.90;98.90
66728;DHT22;53641;44.274;19.890;2023-10-19T02:28:03;12.70;99.00
66728;DHT22;53641;44.274;19.890;2023-10-19T02:30:29;11.40;98.60
66728;DHT22;53641;44.274;19.890;2023-10-19T02:32:56;13.90;99.30
66728;DHT22;53641;44.274;19.890;2023-10-19T02:35:22;11.30;98.70
66728;DHT22;53641;44.274;19.890;2023-10-19T02:37:47;12.60;98.90
66728;DHT22;53641;44.274;19.890;2023-10-19T02:40:13;11.30;98.60
66728;DHT22;53641;44.274;19.890;2023-10-19T02:42:47;11.10;98.70
66728;DHT22;53641;44.274;19.890;2023-10-19T02:45:17;12.10;98.80
66728;DHT22;53641;44.274;19.890;2023-10-19T02:47:44;12.50;98.90
66728;DHT22;53641;44.274;19.890;2023-10-19T02:50:09;11.80;98.90
66728;DHT22;53641;44.274;19.890;2023-10-19T02:52:47;12.50;99.40
66728;DHT22;53641;44.274;19.890;2023-10-19T02:55:13;12.40;99.90
66728;DHT22;53641;44.274;19.890;2023-10-19T02:57:41;12.90;99.90
66728;DHT22;53641;44.274;19.890;2023-10-19T03:00:12;11.90;99.90
66728;DHT22;53641;44.274;19.890;2023-10-19T03:02:39;14.00;99.90
66728;DHT22;53641;44.274;19.890;2023-10-19T03:05:05;11.70;99.90
66728;DHT22;53641;44.274;19.890;2023-10-19T03:07:41;12.80;99.90
66728;DHT22;53641;44.274;19.890;2023-10-19T03:10:10;12.60;99.90
66728;DHT22;53641;44.274;19.890;2023-10-19T03:12:50;13.20;99.90
66728;DHT22;53641;44.274;19.890;2023-10-19T03:15:15;12.50;99.90
66728;DHT22;53641;44.274;19.890;2023-10-19T03:17:41;12.30;99.90
66728;DHT22;53641;44.274;19.890;2023-10-19T03:20:08;12.60;99.90
66728;DHT22;53641;44.274;19.890;2023-10-19T03:22:36;12.80;99.90
66728;DHT22;53641;44.274;19.890;2023-10-19T03:25:02;12.70;99.90
66728;DHT22;53641;44.274;19.890;2023-10-19T03:27:51;12.50;99.90
66728;DHT22;53641;44.274;19.890;2023-10-19T03:30:16;12.60;99.90
66728;DHT22;53641;44.274;19.890;2023-10-19T03:32:43;12.40;99.90
66728;DHT22;53641;44.274;19.890;2023-10-19T03:35:09;12.40;99.90
66728;DHT22;53641;44.274;19.890;2023-10-19T03:37:40;12.50;99.90
66728;DHT22;53641;44.274;19.890;2023-10-19T03:40:07;12.30;99.90
66728;DHT22;53641;44.274;19.890;2023-10-19T03:42:34;12.20;99.90
66728;DHT22;53641;44.274;19.890;2023-10-19T03:45:06;12.30;99.90
66728;DHT22;53641;44.274;19.890;2023-10-19T03:47:38;12.80;99.90
66728;DHT22;53641;44.274;19.890;2023-10-19T03:50:04;12.50;99.90
66728;DHT22;53641;44.274;19.890;2023-10-19T03:52:34;12.40;99.90
66728;DHT22;53641;44.274;19.890;2023-10-19T03:55:03;12.40;99.90
66728;DHT22;53641;44.274;19.890;2023-10-19T03:57:31;12.30;99.90
66728;DHT22;53641;44.274;19.890;2023-10-19T03:59:56;11.10;99.90
66728;DHT22;53641;44.274;19.890;2023-10-19T04:02:22;12.30;99.90
66728;DHT22;53641;44.274;19.890;2023-10-19T04:04:54;12.10;99.90
66728;DHT22;53641;44.274;19.890;2023-10-19T04:07:20;12.00;99.90
66728;DHT22;53641;44.274;19.890;2023-10-19T04:09:51;12.50;99.90
66728;DHT22;53641;44.274;19.890;2023-10-19T04:12:35;14.90;99.90
66728;DHT22;53641;44.274;19.890;2023-10-19T04:15:03;12.60;99.90
66728;DHT22;53641;44.274;19.890;2023-10-19T04:17:45;12.30;99.90
66728;DHT22;53641;44.274;19.890;2023-10-19T04:20:11;12.10;99.90
66728;DHT22;53641;44.274;19.890;2023-10-19T04:22:57;13.70;99.90
66728;DHT22;53641;44.274;19.890;2023-10-19T04:25:24;11.90;99.90
66728;DHT22;53641;44.274;19.890;2023-10-19T04:27:52;11.90;99.90
66728;DHT22;53641;44.274;19.890;2023-10-19T04:30:18;11.60;99.90
66728;DHT22;53641;44.274;19.890;2023-10-19T04:32:48;11.10;99.90
66728;DHT22;53641;44.274;19.890;2023-10-19T04:35:14;12.10;99.90
66728;DHT22;53641;44.274;19.890;2023-10-19T04:37:53;12.00;99.90
66728;DHT22;53641;44.274;19.890;2023-10-19T04:40:22;12.00;99.90
66728;DHT22;53641;44.274;19.890;2023-10-19T04:42:50;11.30;99.90
66728;DHT22;53641;44.274;19.890;2023-10-19T04:45:16;11.80;99.90
66728;DHT22;53641;44.274;19.890;2023-10-19T04:47:41;12.30;99.90
66728;DHT22;53641;44.274;19.890;2023-10-19T04:50:07;11.90;99.90
66728;DHT22;53641;44.274;19.890;2023-10-19T04:52:33;12.10;99.90
66728;DHT22;53641;44.274;19.890;2023-10-19T04:54:59;11.60;99.90
66728;DHT22;53641;44.274;19.890;2023-10-19T04:57:25;10.40;99.90
66728;DHT22;53641;44.274;19.890;2023-10-19T04:59:51;11.20;99.90
66728;DHT22;53641;44.274;19.890;2023-10-19T05:02:17;11.60;99.90
66728;DHT22;53641;44.274;19.890;2023-10-19T05:04:42;12.40;99.90
66728;DHT22;53641;44.274;19.890;2023-10-19T05:07:09;12.20;99.90
66728;DHT22;53641;44.274;19.890;2023-10-19T05:09:37;11.50;99.90
66728;DHT22;53641;44.274;19.890;2023-10-19T05:12:05;11.90;99.90
66728;DHT22;53641;44.274;19.890;2023-10-19T05:14:34;11.50;99.90
66728;DHT22;53641;44.274;19.890;2023-10-19T05:17:04;11.70;99.90
66728;DHT22;53641;44.274;19.890;2023-10-19T05:19:30;13.20;99.90
66728;DHT22;53641;44.274;19.890;2023-10-19T05:21:56;13.00;99.90
66728;DHT22;53641;44.274;19.890;2023-10-19T05:24:22;12.00;99.90
66728;DHT22;53641;44.274;19.890;2023-10-19T05:26:48;12.80;99.90
66728;DHT22;53641;44.274;19.890;2023-10-19T05:29:13;11.90;99.90
66728;DHT22;53641;44.274;19.890;2023-10-19T05:31:39;12.60;99.90
66728;DHT22;53641;44.274;19.890;2023-10-19T05:34:05;12.70;99.90
66728;DHT22;53641;44.274;19.890;2023-10-19T05:36:30;11.70;99.90
66728;DHT22;53641;44.274;19.890;2023-10-19T05:38:57;12.00;99.90
66728;DHT22;53641;44.274;19.890;2023-10-19T05:41:23;12.60;99.90
66728;DHT22;53641;44.274;19.890;2023-10-19T05:43:49;12.60;99.90
66728;DHT22;53641;44.274;19.890;2023-10-19T05:46:15;12.50;99.90
66728;DHT22;53641;44.274;19.890;2023-10-19T05:48:43;12.90;99.90
66728;DHT22;53641;44.274;19.890;2023-10-19T05:51:10;13.00;99.90
66728;DHT22;53641;44.274;19.890;2023-10-19T05:53:36;13.10;99.90
66728;DHT22;53641;44.274;19.890;2023-10-19T05:56:02;12.70;99.90
66728;DHT22;53641;44.274;19.890;2023-10-19T05:58:28;11.20;99.90
66728;DHT22;53641;44.274;19.890;2023-10-19T06:00:57;13.00;99.90
66728;DHT22;53641;44.274;19.890;2023-10-19T06:03:23;14.20;99.90
66728;DHT22;53641;44.274;19.890;2023-10-19T06:05:49;13.00;99.90
66728;DHT22;53641;44.274;19.890;2023-10-19T06:08:14;15.20;99.90
66728;DHT22;53641;44.274;19.890;2023-10-19T06:10:40;11.70;99.90
66728;DHT22;53641;44.274;19.890;2023-10-19T06:13:10;13.30;99.90
66728;DHT22;53641;44.274;19.890;2023-10-19T06:15:36;13.00;99.90
66728;DHT22;53641;44.274;19.890;2023-10-19T06:18:02;13.30;99.90
66728;DHT22;53641;44.274;19.890;2023-10-19T06:20:28;13.30;99.90
66728;DHT22;53641;44.274;19.890;2023-10-19T06:22:56;12.70;99.90
66728;DHT22;53641;44.274;19.890;2023-10-19T06:25:25;13.30;99.90
66728;DHT22;53641;44.274;19.890;2023-10-19T06:27:51;13.40;99.90
66728;DHT22;53641;44.274;19.890;2023-10-19T06:30:18;13.50;99.90
66728;DHT22;53641;44.274;19.890;2023-10-19T06:32:45;13.60;99.90
66728;DHT22;53641;44.274;19.890;2023-10-19T06:35:13;14.00;99.90
66728;DHT22;53641;44.274;19.890;2023-10-19T06:37:39;14.50;99.90
66728;DHT22;53641;44.274;19.890;2023-10-19T06:40:05;13.90;99.90
66728;DHT22;53641;44.274;19.890;2023-10-19T06:42:37;16.20;99.90
66728;DHT22;53641;44.274;19.890;2023-10-19T06:45:03;16.00;99.90
66728;DHT22;53641;44.274;19.890;2023-10-19T06:47:29;14.30;99.90
66728;DHT22;53641;44.274;19.890;2023-10-19T06:49:55;17.20;99.90
66728;DHT22;53641;44.274;19.890;2023-10-19T06:52:21;16.90;99.90
66728;DHT22;53641;44.274;19.890;2023-10-19T06:54:50;17.80;99.20
66728;DHT22;53641;44.274;19.890;2023-10-19T06:57:16;17.90;98.50
66728;DHT22;53641;44.274;19.890;2023-10-19T06:59:43;17.40;97.60
66728;DHT22;53641;44.274;19.890;2023-10-19T07:02:09;17.20;96.70
66728;DHT22;53641;44.274;19.890;2023-10-19T07:04:35;18.70;96.60
66728;DHT22;53641;44.274;19.890;2023-10-19T07:07:00;18.70;95.10
66728;DHT22;53641;44.274;19.890;2023-10-19T07:09:26;18.60;96.20
66728;DHT22;53641;44.274;19.890;2023-10-19T07:11:52;18.00;95.80
66728;DHT22;53641;44.274;19.890;2023-10-19T07:14:20;18.50;95.70
66728;DHT22;53641;44.274;19.890;2023-10-19T07:16:48;18.60;95.10
66728;DHT22;53641;44.274;19.890;2023-10-19T07:19:14;18.50;94.40
66728;DHT22;53641;44.274;19.890;2023-10-19T07:21:39;19.00;94.00
66728;DHT22;53641;44.274;19.890;2023-10-19T07:24:08;19.70;93.40
66728;DHT22;53641;44.274;19.890;2023-10-19T07:26:36;19.80;93.00
66728;DHT22;53641;44.274;19.890;2023-10-19T07:29:09;18.60;92.90
66728;DHT22;53641;44.274;19.890;2023-10-19T07:31:35;18.50;92.90
66728;DHT22;53641;44.274;19.890;2023-10-19T07:34:01;19.70;93.10
66728;DHT22;53641;44.274;19.890;2023-10-19T07:36:27;19.40;93.30
66728;DHT22;53641;44.274;19.890;2023-10-19T07:38:54;19.50;92.80
66728;DHT22;53641;44.274;19.890;2023-10-19T07:41:20;19.60;93.00
66728;DHT22;53641;44.274;19.890;2023-10-19T07:43:46;19.90;92.80
66728;DHT22;53641;44.274;19.890;2023-10-19T07:46:12;22.00;93.30
66728;DHT22;53641;44.274;19.890;2023-10-19T07:48:38;20.50;92.50
66728;DHT22;53641;44.274;19.890;2023-10-19T07:51:07;20.30;91.30
66728;DHT22;53641;44.274;19.890;2023-10-19T07:53:33;20.60;91.60
66728;DHT22;53641;44.274;19.890;2023-10-19T07:55:59;18.60;91.70
66728;DHT22;53641;44.274;19.890;2023-10-19T07:58:24;19.90;92.40
66728;DHT22;53641;44.274;19.890;2023-10-19T08:00:51;18.60;91.70
66728;DHT22;53641;44.274;19.890;2023-10-19T08:03:17;20.00;91.60
66728;DHT22;53641;44.274;19.890;2023-10-19T08:05:52;21.30;90.80
66728;DHT22;53641;44.274;19.890;2023-10-19T08:08:19;21.00;90.80
66728;DHT22;53641;44.274;19.890;2023-10-19T08:10:44;20.80;90.90
66728;DHT22;53641;44.274;19.890;2023-10-19T08:13:10;20.70;91.30
66728;DHT22;53641;44.274;19.890;2023-10-19T08:15:38;20.30;91.80
66728;DHT22;53641;44.274;19.890;2023-10-19T08:18:05;20.10;92.00
66728;DHT22;53641;44.274;19.890;2023-10-19T08:20:31;20.00;92.50
66728;DHT22;53641;44.274;19.890;2023-10-19T08:22:57;19.60;93.40
66728;DHT22;53641;44.274;19.890;2023-10-19T08:25:23;19.90;94.90
66728;DHT22;53641;44.274;19.890;2023-10-19T08:27:49;20.80;94.30
66728;DHT22;53641;44.274;19.890;2023-10-19T08:32:43;20.50;94.40
66728;DHT22;53641;44.274;19.890;2023-10-19T08:35:14;20.50;96.30
66728;DHT22;53641;44.274;19.890;2023-10-19T08:37:39;20.50;93.10
66728;DHT22;53641;44.274;19.890;2023-10-19T08:42:31;21.00;93.10
66728;DHT22;53641;44.274;19.890;2023-10-19T08:44:58;20.90;92.90
66728;DHT22;53641;44.274;19.890;2023-10-19T08:47:30;20.60;93.20
66728;DHT22;53641;44.274;19.890;2023-10-19T08:49:56;21.10;93.00
66728;DHT22;53641;44.274;19.890;2023-10-19T08:52:24;21.00;92.80
66728;DHT22;53641;44.274;19.890;2023-10-19T08:54:51;22.30;92.70
66728;DHT22;53641;44.274;19.890;2023-10-19T08:57:17;22.30;92.20
66728;DHT22;53641;44.274;19.890;2023-10-19T08:59:44;22.40;92.00
66728;DHT22;53641;44.274;19.890;2023-10-19T09:02:12;23.70;92.60
66728;DHT22;53641;44.274;19.890;2023-10-19T09:04:41;22.00;92.50
66728;DHT22;53641;44.274;19.890;2023-10-19T09:07:08;20.70;92.50
66728;DHT22;53641;44.274;19.890;2023-10-19T09:09:35;21.00;93.20
66728;DHT22;53641;44.274;19.890;2023-10-19T09:12:06;22.00;93.40
66728;DHT22;53641;44.274;19.890;2023-10-19T09:14:32;21.90;92.20
66728;DHT22;53641;44.274;19.890;2023-10-19T09:17:02;22.10;91.50
66728;DHT22;53641;44.274;19.890;2023-10-19T09:19:36;22.50;90.00
66728;DHT22;53641;44.274;19.890;2023-10-19T09:22:02;22.40;90.20
66728;DHT22;53641;44.274;19.890;2023-10-19T09:24:35;22.40;90.60
66728;DHT22;53641;44.274;19.890;2023-10-19T09:27:03;22.50;88.20
66728;DHT22;53641;44.274;19.890;2023-10-19T09:29:29;23.10;86.70
66728;DHT22;53641;44.274;19.890;2023-10-19T09:31:54;22.50;86.20
66728;DHT22;53641;44.274;19.890;2023-10-19T09:34:23;21.90;85.50
66728;DHT22;53641;44.274;19.890;2023-10-19T09:36:51;22.10;84.70
66728;DHT22;53641;44.274;19.890;2023-10-19T09:39:18;22.20;85.80
66728;DHT22;53641;44.274;19.890;2023-10-19T09:41:43;22.30;85.20
66728;DHT22;53641;44.274;19.890;2023-10-19T09:44:09;22.60;85.10
66728;DHT22;53641;44.274;19.890;2023-10-19T09:46:37;22.80;86.10
66728;DHT22;53641;44.274;19.890;2023-10-19T09:49:05;23.00;88.50
66728;DHT22;53641;44.274;19.890;2023-10-19T09:51:32;23.10;84.10
66728;DHT22;53641;44.274;19.890;2023-10-19T09:54:11;23.00;83.40
66728;DHT22;53641;44.274;19.890;2023-10-19T09:56:40;22.90;85.30
66728;DHT22;53641;44.274;19.890;2023-10-19T09:59:19;22.20;84.00
66728;DHT22;53641;44.274;19.890;2023-10-19T10:02:21;23.00;84.40
66728;DHT22;53641;44.274;19.890;2023-10-19T10:04:33;22.50;84.20
66728;DHT22;53641;44.274;19.890;2023-10-19T10:07:00;23.10;83.90
66728;DHT22;53641;44.274;19.890;2023-10-19T10:09:26;22.50;83.10
66728;DHT22;53641;44.274;19.890;2023-10-19T10:11:52;23.00;83.40
66728;DHT22;53641;44.274;19.890;2023-10-19T10:14:25;23.00;84.00
66728;DHT22;53641;44.274;19.890;2023-10-19T10:17:01;21.70;84.70
66728;DHT22;53641;44.274;19.890;2023-10-19T10:19:27;23.70;85.60
66728;DHT22;53641;44.274;19.890;2023-10-19T10:22:04;22.50;86.30
66728;DHT22;53641;44.274;19.890;2023-10-19T10:24:43;22.60;85.00
66728;DHT22;53641;44.274;19.890;2023-10-19T10:27:09;23.30;85.50
66728;DHT22;53641;44.274;19.890;2023-10-19T10:29:58;24.40;85.40
66728;DHT22;53641;44.274;19.890;2023-10-19T10:32:58;24.20;83.90
66728;DHT22;53641;44.274;19.890;2023-10-19T10:35:09;21.60;83.50
66728;DHT22;53641;44.274;19.890;2023-10-19T10:37:38;21.90;85.40
66728;DHT22;53641;44.274;19.890;2023-10-19T10:40:05;22.90;86.60
66728;DHT22;53641;44.274;19.890;2023-10-19T10:42:31;21.60;84.40
66728;DHT22;53641;44.274;19.890;2023-10-19T10:44:57;21.80;84.20
66728;DHT22;53641;44.274;19.890;2023-10-19T10:47:23;23.10;85.40
66728;DHT22;53641;44.274;19.890;2023-10-19T10:49:50;22.30;84.70
66728;DHT22;53641;44.274;19.890;2023-10-19T10:52:28;23.60;84.20
66728;DHT22;53641;44.274;19.890;2023-10-19T10:55:07;23.30;83.50
66728;DHT22;53641;44.274;19.890;2023-10-19T10:57:36;22.40;83.30
66728;DHT22;53641;44.274;19.890;2023-10-19T11:00:06;24.70;84.90
66728;DHT22;53641;44.274;19.890;2023-10-19T11:02:36;24.10;84.70
66728;DHT22;53641;44.274;19.890;2023-10-19T11:05:08;22.90;83.60
66728;DHT22;53641;44.274;19.890;2023-10-19T11:07:37;24.40;83.30
66728;DHT22;53641;44.274;19.890;2023-10-19T11:10:03;23.40;83.20
66728;DHT22;53641;44.274;19.890;2023-10-19T11:12:29;24.90;83.40
66728;DHT22;53641;44.274;19.890;2023-10-19T11:15:04;24.40;81.20
66728;DHT22;53641;44.274;19.890;2023-10-19T11:17:48;24.20;80.70
66728;DHT22;53641;44.274;19.890;2023-10-19T11:20:20;25.90;84.30
66728;DHT22;53641;44.274;19.890;2023-10-19T11:22:49;26.50;83.30
66728;DHT22;53641;44.274;19.890;2023-10-19T11:25:19;23.10;81.30
66728;DHT22;53641;44.274;19.890;2023-10-19T11:27:45;26.00;83.40
66728;DHT22;53641;44.274;19.890;2023-10-19T11:30:13;22.60;80.90
66728;DHT22;53641;44.274;19.890;2023-10-19T11:32:39;23.00;80.60
66728;DHT22;53641;44.274;19.890;2023-10-19T11:35:05;24.30;82.70
66728;DHT22;53641;44.274;19.890;2023-10-19T11:37:51;24.70;83.40
66728;DHT22;53641;44.274;19.890;2023-10-19T11:40:19;22.70;80.90
66728;DHT22;53641;44.274;19.890;2023-10-19T11:42:45;22.60;80.00
66728;DHT22;53641;44.274;19.890;2023-10-19T11:45:13;24.40;81.00
66728;DHT22;53641;44.274;19.890;2023-10-19T11:47:42;26.00;84.50
66728;DHT22;53641;44.274;19.890;2023-10-19T11:50:11;22.50;79.90
66728;DHT22;53641;44.274;19.890;2023-10-19T11:52:43;24.00;81.20
66728;DHT22;53641;44.274;19.890;2023-10-19T11:55:09;24.70;83.30
66728;DHT22;53641;44.274;19.890;2023-10-19T11:57:35;23.60;80.70
66728;DHT22;53641;44.274;19.890;2023-10-19T12:00:02;22.30;80.90
66728;DHT22;53641;44.274;19.890;2023-10-19T12:02:34;22.20;81.30
66728;DHT22;53641;44.274;19.890;2023-10-19T12:05:01;24.80;83.50
66728;DHT22;53641;44.274;19.890;2023-10-19T12:07:27;24.10;82.90
66728;DHT22;53641;44.274;19.890;2023-10-19T12:09:52;23.60;84.60
66728;DHT22;53641;44.274;19.890;2023-10-19T12:12:18;23.60;83.90
66728;DHT22;53641;44.274;19.890;2023-10-19T12:14:43;23.90;85.60
66728;DHT22;53641;44.274;19.890;2023-10-19T12:17:09;23.70;86.70
66728;DHT22;53641;44.274;19.890;2023-10-19T12:19:35;23.60;86.70
66728;DHT22;53641;44.274;19.890;2023-10-19T12:22:00;23.50;87.80
66728;DHT22;53641;44.274;19.890;2023-10-19T12:24:28;23.50;87.30
66728;DHT22;53641;44.274;19.890;2023-10-19T12:26:54;22.50;86.70
66728;DHT22;53641;44.274;19.890;2023-10-19T12:32:29;24.20;86.40
66728;DHT22;53641;44.274;19.890;2023-10-19T12:34:55;24.80;83.20
66728;DHT22;53641;44.274;19.890;2023-10-19T12:37:23;26.90;84.70
66728;DHT22;53641;44.274;19.890;2023-10-19T12:39:49;24.30;82.50
66728;DHT22;53641;44.274;19.890;2023-10-19T12:42:16;23.00;82.10
66728;DHT22;53641;44.274;19.890;2023-10-19T12:44:42;24.30;83.20
66728;DHT22;53641;44.274;19.890;2023-10-19T12:47:09;24.20;83.70
66728;DHT22;53641;44.274;19.890;2023-10-19T12:49:42;24.20;82.10
66728;DHT22;53641;44.274;19.890;2023-10-19T12:52:10;23.00;82.90
66728;DHT22;53641;44.274;19.890;2023-10-19T12:54:36;25.90;87.20
66728;DHT22;53641;44.274;19.890;2023-10-19T12:57:02;24.30;82.80
66728;DHT22;53641;44.274;19.890;2023-10-19T12:59:35;21.80;81.80
66728;DHT22;53641;44.274;19.890;2023-10-19T13:02:03;24.10;82.70
66728;DHT22;53641;44.274;19.890;2023-10-19T13:04:29;23.30;82.50
66728;DHT22;53641;44.274;19.890;2023-10-19T13:06:56;21.90;83.80
66728;DHT22;53641;44.274;19.890;2023-10-19T13:09:25;25.50;84.90
66728;DHT22;53641;44.274;19.890;2023-10-19T13:11:57;26.30;85.30
66728;DHT22;53641;44.274;19.890;2023-10-19T13:14:22;20.70;81.30
66728;DHT22;53641;44.274;19.890;2023-10-19T13:16:48;26.20;85.50
66728;DHT22;53641;44.274;19.890;2023-10-19T13:19:16;23.40;82.10
66728;DHT22;53641;44.274;19.890;2023-10-19T13:21:47;23.80;84.40
66728;DHT22;53641;44.274;19.890;2023-10-19T13:24:14;24.70;82.40
66728;DHT22;53641;44.274;19.890;2023-10-19T13:26:41;23.60;82.00
66728;DHT22;53641;44.274;19.890;2023-10-19T13:29:11;23.70;81.60
66728;DHT22;53641;44.274;19.890;2023-10-19T13:31:37;24.50;82.60
66728;DHT22;53641;44.274;19.890;2023-10-19T13:34:02;24.40;82.80
66728;DHT22;53641;44.274;19.890;2023-10-19T13:36:30;23.70;82.40
66728;DHT22;53641;44.274;19.890;2023-10-19T13:38:55;23.90;83.10
66728;DHT22;53641;44.274;19.890;2023-10-19T13:41:21;24.10;82.20
66728;DHT22;53641;44.274;19.890;2023-10-19T13:43:49;24.20;84.30
66728;DHT22;53641;44.274;19.890;2023-10-19T13:46:16;24.00;83.70
66728;DHT22;53641;44.274;19.890;2023-10-19T13:48:41;22.80;83.90
66728;DHT22;53641;44.274;19.890;2023-10-19T13:51:07;24.00;83.30
66728;DHT22;53641;44.274;19.890;2023-10-19T13:53:39;23.50;82.90
66728;DHT22;53641;44.274;19.890;2023-10-19T13:56:08;24.10;83.20
66728;DHT22;53641;44.274;19.890;2023-10-19T13:58:37;24.30;84.00
66728;DHT22;53641;44.274;19.890;2023-10-19T14:01:06;23.10;84.50
66728;DHT22;53641;44.274;19.890;2023-10-19T14:03:32;23.90;83.60
66728;DHT22;53641;44.274;19.890;2023-10-19T14:05:57;23.80;84.60
66728;DHT22;53641;44.274;19.890;2023-10-19T14:08:23;23.60;87.50
66728;DHT22;53641;44.274;19.890;2023-10-19T14:10:49;21.60;86.90
66728;DHT22;53641;44.274;19.890;2023-10-19T14:13:14;21.80;87.50
66728;DHT22;53641;44.274;19.890;2023-10-19T14:15:40;24.20;89.50
66728;DHT22;53641;44.274;19.890;2023-10-19T14:18:07;23.00;88.10
66728;DHT22;53641;44.274;19.890;2023-10-19T14:20:33;23.20;87.10
66728;DHT22;53641;44.274;19.890;2023-10-19T14:23:00;23.60;83.60
66728;DHT22;53641;44.274;19.890;2023-10-19T14:25:26;23.70;84.40
66728;DHT22;53641;44.274;19.890;2023-10-19T14:27:52;23.80;86.10
66728;DHT22;53641;44.274;19.890;2023-10-19T14:30:23;23.80;82.00
66728;DHT22;53641;44.274;19.890;2023-10-19T14:32:50;23.80;85.60
66728;DHT22;53641;44.274;19.890;2023-10-19T14:35:16;23.60;86.10
66728;DHT22;53641;44.274;19.890;2023-10-19T14:37:43;23.90;86.00
66728;DHT22;53641;44.274;19.890;2023-10-19T14:40:14;23.30;84.40
66728;DHT22;53641;44.274;19.890;2023-10-19T14:42:43;23.30;81.30
66728;DHT22;53641;44.274;19.890;2023-10-19T14:45:10;23.30;82.70
66728;DHT22;53641;44.274;19.890;2023-10-19T14:47:36;23.50;82.00
66728;DHT22;53641;44.274;19.890;2023-10-19T14:50:03;22.80;82.80
66728;DHT22;53641;44.274;19.890;2023-10-19T14:52:29;23.00;82.50
66728;DHT22;53641;44.274;19.890;2023-10-19T14:54:54;23.10;85.10
66728;DHT22;53641;44.274;19.890;2023-10-19T14:57:21;22.70;83.40
66728;DHT22;53641;44.274;19.890;2023-10-19T14:59:47;23.50;80.60
66728;DHT22;53641;44.274;19.890;2023-10-19T15:02:13;22.90;82.20
66728;DHT22;53641;44.274;19.890;2023-10-19T15:04:39;24.10;81.90
66728;DHT22;53641;44.274;19.890;2023-10-19T15:07:05;21.30;80.30
66728;DHT22;53641;44.274;19.890;2023-10-19T15:09:31;22.60;83.20
66728;DHT22;53641;44.274;19.890;2023-10-19T15:11:58;22.60;82.50
66728;DHT22;53641;44.274;19.890;2023-10-19T15:14:23;21.20;84.50
66728;DHT22;53641;44.274;19.890;2023-10-19T15:16:50;21.40;84.20
66728;DHT22;53641;44.274;19.890;2023-10-19T15:19:16;21.40;85.40
66728;DHT22;53641;44.274;19.890;2023-10-19T15:21:44;21.80;86.90
66728;DHT22;53641;44.274;19.890;2023-10-19T15:24:10;21.80;86.00
66728;DHT22;53641;44.274;19.890;2023-10-19T15:26:38;21.60;84.70
66728;DHT22;53641;44.274;19.890;2023-10-19T15:29:03;21.90;86.70